Mauston, WI

4:08 AM CDT on July 04, 2015 (GMT -0500)
Juneau County Weather | | Change Station
CLOSE
Current Station
Personal Weather Station
Location: Mauston, WI
Elevation: 873 ft
Nearby Weather Stations

Elev 873 ft 43.80 °N, 90.07 °W | Updated 26 seconds ago

Clear
Clear
60.5 °F
Feels Like 60.5 °F
N
0.0
Wind Variable Wind from SW
Gusts 0.0 mph

Today
High -- | Low -- °F
--% Chance of Precip.
Yesterday
High -- | Low -- °F
Precip. -- in
5:23 AM 8:45 PM
Waning Gibbous, 93% visible
Pressure 29.93 in
Visibility 2.5 miles
Clouds Clear
Dew Point 58 °F
Humidity 92%
Rainfall 0.00 in
Snow Depth Not available.
UV 0.0 out of 12
Pollen 4.00 out of 12
Air Quality Not available.
Flu Activity Not available.
SPECI KVOK 040903Z AUTO 09001KT 2 1/2SM R27/4500FT BR CLR 12/12 A2993 RMK AO2 VIS 2V9

More Conditions Fewer Conditions

Pressure 29.93 in
Visibility 2.5 miles
Clouds Clear
Dew Point 58 °F
Humidity 92%
Rainfall 0.00 in
Snow Depth Not available.
UV 0.0 out of 12
Pollen 4.00 out of 12
Air Quality Not available.
Flu Activity Not available.
SPECI KVOK 040903Z AUTO 09001KT 2 1/2SM R27/4500FT BR CLR 12/12 A2993 RMK AO2 VIS 2V9

More Conditions Fewer Conditions

10-Day Weather Forecast

×

Almanac

Astronomy

Jul. 04, 2015 Rise Set
Actual Time
Civil Twilight
Nautical Twilight
Astronomical Twilight
Moon
Length of Visible Light
Length of Day
Tomorrow will be .
, % of the Moon is Illuminated

Today's Extremes

State Highs State Lows

Community

WunderPhotos

Upload Photos

1,834,931 photos uploaded!

WunderBlogs® & News

Nearby

Air Quality

  Air Quality AQ Index Pollutant
Not available.

Snow Depth

Station Depth Elevation

Earthquake Activity

City Distance Mag. Time & Date
Minimum magnitude displayed is 2.5.

Coastal Water Temperatures

Place Temperature

Stations

Nearby Weather Stations

Station Location Temp. Windchill Dew Point Humidity Wind Precip. Elev Updated Type